• Join FlightAware (Why Join?)
  • Login
  • US Flag 
01:27PM EDT


 

Airport Tracker/Info


-or-


 

Live Flight TrackerFlight Track Log ✈ VH-YNA ✈ 04-Sep-2013 ✈ YPJT / JAD - YPJT / JAD

Flight Track Log - Related Links

Times and Time Zones

All times are in EDT time to prevent confusion due to time zone crossing. See the VH-YNA flight status page for this flight to view local times or setup timezone preferences in your user account.

Time Position Orientation Groundspeed Altitude Reporting Facility
EDT Latitude Longitude Course Direction KTS MPH feet Rate Location/Type
08:30AM -32.1033 115.8669 284° West 62 71 800  Level Aus ATC (RADAR)
08:31AM -32.1010 115.8560 284° West 68 78 1,200 720 Climbing Aus ATC (RADAR)
08:31AM -32.0897 115.8601 17° North 82 94 1,600 840 Climbing Aus ATC (RADAR)
08:32AM -32.0885 115.8793 86° East 86 99 2,200 780 Climbing Aus ATC (RADAR)
08:33AM -32.1011 115.8830 166° South 77 89 2,600 720 Climbing Aus ATC (RADAR)
08:33AM -32.1122 115.8871 163° South 83 96 3,000 480 Climbing Aus ATC (RADAR)
08:34AM -32.1302 115.8898 173° South 101 116 3,200 120 Climbing Aus ATC (RADAR)
08:34AM -32.1471 115.8910 177° South 105 121 3,200 -120 Level Aus ATC (RADAR)
08:35AM -32.1697 115.8891 184° South 107 123 3,100 -120 Descending Aus ATC (RADAR)
08:36AM -32.1855 115.8866 188° South 99 114 3,100  Level Aus ATC (RADAR)
08:36AM -32.2014 115.8880 176° South 97 112 3,100  Level Aus ATC (RADAR)
08:37AM -32.2169 115.8899 174° South 96 110 3,100 -120 Level Aus ATC (RADAR)
08:37AM -32.2334 115.8907 178° South 100 115 3,000  Descending Aus ATC (RADAR)
08:38AM -32.2493 115.8915 177° South 96 110 3,100 120 Climbing Aus ATC (RADAR)
08:39AM -32.2691 115.8941 174° South 109 125 3,200  Climbing Aus ATC (RADAR)
08:39AM -32.2852 115.8935 182° South 115 132 3,100 -120 Descending Aus ATC (RADAR)
08:40AM -32.3032 115.8938 179° South 110 127 3,100  Level Aus ATC (RADAR)
08:40AM -32.3217 115.8954 176° South 115 132 3,100  Level Aus ATC (RADAR)
08:41AM -32.3379 115.8968 176° South 116 133 3,100  Level Aus ATC (RADAR)
08:41AM -32.3555 115.8955 183° South 108 124 3,100  Level Aus ATC (RADAR)
08:42AM -32.3770 115.9022 165° South 116 133 3,100  Level Aus ATC (RADAR)
08:43AM -32.3925 115.9029 178° South 113 130 3,100  Level Aus ATC (RADAR)
08:43AM -32.4107 115.9043 177° South 113 130 3,100  Level Aus ATC (RADAR)
08:44AM -32.4295 115.9059 176° South 115 132 3,100  Level Aus ATC (RADAR)
08:44AM -32.4470 115.9006 195° South 111 128 3,100 60 Level Aus ATC (RADAR)
08:45AM -32.4682 115.9077 164° South 115 132 3,200  Climbing Aus ATC (RADAR)
08:46AM -32.4835 115.9136 162° South 114 131 3,100 -120 Descending Aus ATC (RADAR)
08:46AM -32.5020 115.9183 168° South 116 133 3,100 -120 Level Aus ATC (RADAR)
08:47AM -32.5228 115.9232 169° South 115 132 3,000  Descending Aus ATC (RADAR)
08:47AM -32.5411 115.9262 172° South 112 129 3,100 60 Climbing Aus ATC (RADAR)
08:48AM -32.5591 115.9279 175° South 110 127 3,100 -120 Level Aus ATC (RADAR)
08:48AM -32.5745 115.9269 183° South 111 128 3,000  Descending Aus ATC (RADAR)
08:49AM -32.5925 115.9295 173° South 111 128 3,100 60 Climbing Aus ATC (RADAR)
08:50AM -32.6075 115.9321 172° South 110 127 3,100 60 Level Aus ATC (RADAR)
08:50AM -32.6230 115.9348 172° South 112 129 3,200 60 Climbing Aus ATC (RADAR)
08:51AM -32.6442 115.9358 178° South 112 129 3,200 -120 Level Aus ATC (RADAR)
08:51AM -32.6658 115.9388 173° South 118 136 3,100 -120 Descending Aus ATC (RADAR)
08:52AM -32.6846 115.9406 176° South 116 133 3,100  Level Aus ATC (RADAR)
08:52AM -32.7003 115.9468 161° South 117 135 3,100  Level Aus ATC (RADAR)
08:53AM -32.7216 115.9516 169° South 117 135 3,100  Level Aus ATC (RADAR)
08:54AM -32.7397 115.9558 169° South 113 130 3,100  Level Aus ATC (RADAR)
08:54AM -32.7582 115.9575 176° South 113 130 3,100  Level Aus ATC (RADAR)
08:55AM -32.7769 115.9628 167° South 116 133 3,100  Level Aus ATC (RADAR)
08:56AM -32.8010 115.9681 170° South 116 133 3,100  Level Aus ATC (RADAR)
08:56AM -32.8198 115.9704 174° South 116 133 3,100 -120 Level Aus ATC (RADAR)
08:57AM -32.8383 115.9709 179° South 114 131 3,000  Descending Aus ATC (RADAR)
08:57AM -32.8570 115.9731 174° South 115 132 3,100 60 Climbing Aus ATC (RADAR)
08:58AM -32.8758 115.9761 172° South 115 132 3,100  Level Aus ATC (RADAR)
08:59AM -32.8949 115.9773 177° South 117 135 3,100  Level Aus ATC (RADAR)
08:59AM -32.9137 115.9843 163° South 120 138 3,100 -60 Level Aus ATC (RADAR)
09:00AM -32.9485 115.9937 167° South 118 136 3,000 -120 Descending Aus ATC (RADAR)
09:01AM -32.9834 115.9973 175° South 117 135 2,900  Descending Aus ATC (RADAR)
09:02AM -33.0167 116.0176 153° Southeast 122 140 3,000 60 Climbing Aus ATC (RADAR)
09:03AM -33.0487 116.0411 148° Southeast 123 142 3,100  Climbing Aus ATC (RADAR)
09:04AM -33.0785 116.0610 151° Southeast 122 140 3,100  Level Aus ATC (RADAR)
09:06AM -33.1153 116.0835 153° Southeast 128 147 3,100 -120 Level Aus ATC (RADAR)
09:07AM -33.1491 116.1026 155° Southeast 124 143 2,900  Descending Aus ATC (RADAR)
09:08AM -33.1787 116.1203 153° Southeast 117 135 3,100  Climbing Aus ATC (RADAR)
09:11AM -33.2727 116.1518 247° West 3,000 -60 Descending Aus ATC (Calculated)
09:13AM -33.3249 116.1693 164° South  Level FlightAware Approximate
09:14AM -33.3544 116.1792 164° South  Level FlightAware Approximate
09:14AM -33.2860 116.0925 244° Southwest 3,000  Level Aus ATC (Calculated)
09:16AM -33.3273 116.1390 137° Southeast  Level FlightAware Approximate
09:17AM -33.3497 116.1642 137° Southeast  Level FlightAware Approximate
09:18AM -33.3669 116.1734 268° West  Level FlightAware Approximate
09:19AM -33.3678 116.1367 268° West  Level FlightAware Approximate
09:20AM -33.3687 116.1000 268° West  Level FlightAware Approximate
09:21AM -33.3696 116.0632 268° West  Level FlightAware Approximate
09:22AM -33.3704 116.0265 268° West  Level FlightAware Approximate
09:22AM -33.3646 115.8972 268° West 97 112 2,900  Level Aus ATC (RADAR)
09:23AM -33.3679 115.8664 263° West 89 102 3,000 60 Climbing Aus ATC (RADAR)
09:24AM -33.3706 115.8302 265° West 97 112 3,100  Climbing Aus ATC (RADAR)
09:25AM -33.3711 115.7975 269° West 93 107 3,100 -300 Level Aus ATC (RADAR)
09:26AM -33.3691 115.7631 274° West 93 107 2,500 -540 Descending Aus ATC (RADAR)
09:27AM -33.3695 115.7487 268° West 88 101 2,300  Descending Aus ATC (RADAR)
09:29AM -33.2900 115.7570 316° Northwest 100  Descending Aus ATC (Calculated)
09:30AM -33.2900 115.7570 316° Northwest 100 120 Level Aus ATC (Calculated)
09:31AM -33.3291 115.7216 217° Southwest  Level FlightAware Approximate
09:32AM -33.2344 115.7629 North  Level Estimated
09:33AM -33.2035 115.7662 North  Level FlightAware Approximate
09:34AM -33.1727 115.7694 North  Level FlightAware Approximate
09:35AM -33.1418 115.7727 North  Level FlightAware Approximate
09:36AM -33.1109 115.7759 North  Level FlightAware Approximate
09:37AM -33.0800 115.7792 North  Level FlightAware Approximate
09:38AM -33.0491 115.7824 North  Level FlightAware Approximate
09:39AM -33.0183 115.7856 North  Level FlightAware Approximate
09:40AM -32.9874 115.7889 North  Level FlightAware Approximate
09:41AM -32.9565 115.7921 North  Level FlightAware Approximate
09:42AM -32.9256 115.7953 North  Level FlightAware Approximate
09:43AM -32.8947 115.7986 North  Level FlightAware Approximate
09:44AM -32.8639 115.8018 North  Level FlightAware Approximate
09:45AM -32.8330 115.8050 North  Level FlightAware Approximate
09:46AM -32.8021 115.8083 North  Level FlightAware Approximate
09:47AM -32.7712 115.8115 North  Level FlightAware Approximate
09:47AM -33.2553 115.7172 North 124 143 3,100  Level Aus ATC (RADAR)
09:48AM -33.2228 115.7196 North 119 137 3,300  Climbing Aus ATC (RADAR)
09:49AM -33.1812 115.7257 North 127 146 3,100 -120 Descending Aus ATC (RADAR)
09:50AM -33.1449 115.7326 North 120 138 3,100  Level Aus ATC (RADAR)
09:51AM -33.1108 115.7381 North 122 140 3,100 -60 Level Aus ATC (RADAR)
09:52AM -33.0727 115.7399 North 121 139 3,000  Descending Aus ATC (RADAR)
09:53AM -33.0363 115.7452 North 121 139 3,100  Climbing Aus ATC (RADAR)
09:54AM -32.9956 115.7486 North 125 144 3,100 -60 Level Aus ATC (RADAR)
09:55AM -32.9613 115.7531 North 123 142 3,000  Descending Aus ATC (RADAR)
09:56AM -32.9280 115.7567 North 118 136 3,100  Climbing Aus ATC (RADAR)
09:57AM -32.8888 115.7636 North 123 142 3,100  Level Aus ATC (RADAR)
09:58AM -32.8554 115.7667 North 121 139 3,100  Level Aus ATC (RADAR)
09:59AM -32.8203 115.7703 North 115 132 3,100 -60 Level Aus ATC (RADAR)
10:01AM -32.7847 115.7769 North 121 139 3,000  Descending Aus ATC (RADAR)
10:02AM -32.7466 115.7765 359° North 127 146 3,100 60 Climbing Aus ATC (RADAR)
10:03AM -32.7138 115.7817 North 117 135 3,200  Climbing Aus ATC (RADAR)
10:04AM -32.6751 115.7901 10° North 124 143 3,100 -60 Descending Aus ATC (RADAR)
10:05AM -32.6409 115.7964 North 126 145 3,100 -60 Level Aus ATC (RADAR)
10:06AM -32.6048 115.8052 12° North 120 138 3,000  Descending Aus ATC (RADAR)
10:07AM -32.5665 115.8108 North 117 135 3,100  Climbing Aus ATC (RADAR)
10:08AM -32.5303 115.8149 North 121 139 3,100 -60 Level Aus ATC (RADAR)
10:09AM -32.4962 115.8188 North 122 140 3,000 -60 Descending Aus ATC (RADAR)
10:10AM -32.4602 115.8240 North 122 140 3,000 -120 Level Aus ATC (RADAR)
10:11AM -32.4214 115.8296 North 118 136 2,800 -300 Descending Aus ATC (RADAR)
10:12AM -32.3858 115.8399 14° North 121 139 2,400 -420 Descending Aus ATC (RADAR)
10:14AM -32.3480 115.8461 North 123 142 1,900 -240 Descending Aus ATC (RADAR)
10:15AM -32.3153 115.8519 North 117 135 1,900 -60 Level Aus ATC (RADAR)
10:16AM -32.2756 115.8569 North 121 139 1,800 -60 Descending Aus ATC (RADAR)
10:17AM -32.2414 115.8653 12° North 120 138 1,800 -60 Level Aus ATC (RADAR)
10:18AM -32.2108 115.8735 13° North 109 125 1,700  Descending Aus ATC (RADAR)
10:19AM -32.1788 115.8795 North 100 115 1,800 -120 Climbing Aus ATC (RADAR)
10:20AM -32.1517 115.8829 North 95 109 1,500 -300 Descending Aus ATC (RADAR)
10:21AM -32.1235 115.8801 355° North 95 109 1,200 -240 Descending Aus ATC (RADAR)
10:22AM -32.1044 115.9078 51° Northeast 99 114 1,100 -240 Descending Aus ATC (RADAR)
10:23AM -32.0859 115.9065 356° North 69 79 800 -480 Descending Aus ATC (RADAR)
10:24AM -32.0917 115.8888 249° West 61 70 200 -360 Descending Aus ATC (RADAR)
10:25AM -32.0986 115.8770 235° Southwest 22 25 100 -120 Descending Aus ATC (RADAR)